Time;durP1;ratioP1;P1;durP2;ratioP2;P2;SDS_P1;SDS_P2;PMS_P1;PMS_P2;Temp;Humidity;BMP_temperature;BMP_pressure;BME280_temperature;BME280_humidity;BME280_pressure;Samples;Min_cycle;Max_cycle;Signal;HPM_P1;HPM_P2
2021/08/13 00:02:26;;;;;;;25.65;16.67;;;;;;;;;;4346866;33;20194;-79
2021/08/13 00:04:52;;;;;;;30.12;18.52;;;;;;;;;;4344992;33;20174;-79
2021/08/13 00:07:17;;;;;;;26.35;17.00;;;;;;;;;;4332325;33;20543;-79
2021/08/13 00:09:42;;;;;;;25.75;15.65;;;;;;;;;;4331471;33;20207;-79
2021/08/13 00:12:08;;;;;;;28.75;16.75;;;;;;;;;;4331774;33;20601;-79
2021/08/13 00:14:33;;;;;;;24.08;15.25;;;;;;;;;;4332906;33;20162;-79
2021/08/13 00:16:59;;;;;;;24.65;15.45;;;;;;;;;;4331249;33;20164;-78
2021/08/13 00:19:24;;;;;;;28.48;17.15;;;;;;;;;;4332714;33;20160;-79
2021/08/13 00:21:52;;;;;;;25.88;17.12;;;;;;;;;;4336491;33;20214;-79
2021/08/13 00:24:18;;;;;;;26.77;15.38;;;;;;;;;;4346149;33;20186;-80
2021/08/13 00:26:43;;;;;;;23.92;14.70;;;;;;;;;;4346210;33;20211;-79
2021/08/13 00:29:08;;;;;;;25.65;16.25;;;;;;;;;;4346899;32;20132;-79
2021/08/13 00:31:33;;;;;;;29.15;18.60;;;;;;;;;;4346009;33;20163;-79
2021/08/13 00:33:59;;;;;;;32.95;20.83;;;;;;;;;;4346632;33;20155;-79
2021/08/13 00:36:24;;;;;;;31.23;18.55;;;;;;;;;;4345973;33;20159;-79
2021/08/13 00:38:49;;;;;;;38.88;22.87;;;;;;;;;;4344368;33;20201;-79
2021/08/13 00:41:14;;;;;;;36.70;23.25;;;;;;;;;;4344043;33;20163;-79
2021/08/13 00:43:52;;;;;;;39.53;23.02;;;;;;;;;;4332269;33;20161;-79
2021/08/13 00:46:21;;;;;;;38.53;22.80;;;;;;;;;;4343502;33;20159;-80
2021/08/13 00:48:47;;;;;;;38.90;21.48;;;;;;;;;;4333932;33;20190;-79
2021/08/13 00:51:12;;;;;;;40.05;22.92;;;;;;;;;;4345489;33;20242;-80
2021/08/13 00:53:38;;;;;;;35.35;21.65;;;;;;;;;;4345576;33;20189;-79
2021/08/13 00:56:03;;;;;;;36.25;21.55;;;;;;;;;;4346147;33;20639;-78
2021/08/13 00:58:28;;;;;;;37.58;22.08;;;;;;;;;;4345757;33;20186;-79
2021/08/13 01:00:54;;;;;;;36.58;22.05;;;;;;;;;;4346231;33;20175;-79
2021/08/13 01:03:20;;;;;;;37.38;21.48;;;;;;;;;;4346964;33;20179;-79
2021/08/13 01:05:45;;;;;;;35.90;20.35;;;;;;;;;;4346034;33;20616;-79
2021/08/13 01:08:10;;;;;;;37.95;22.23;;;;;;;;;;4346973;32;20139;-80
2021/08/13 01:10:41;;;;;;;35.53;20.10;;;;;;;;;;4338306;33;20186;-79
2021/08/13 01:13:11;;;;;;;33.47;20.33;;;;;;;;;;4332651;33;20144;-79
2021/08/13 01:15:40;;;;;;;37.90;21.12;;;;;;;;;;4331643;33;20186;-79
2021/08/13 01:18:07;;;;;;;33.60;19.48;;;;;;;;;;4330735;33;20159;-78
2021/08/13 01:20:33;;;;;;;33.55;20.00;;;;;;;;;;4332513;33;20210;-78
2021/08/13 01:23:05;;;;;;;33.03;19.70;;;;;;;;;;4331008;33;20474;-78
2021/08/13 01:25:31;;;;;;;33.20;19.58;;;;;;;;;;4331570;33;20195;-78
2021/08/13 01:28:02;;;;;;;34.90;21.42;;;;;;;;;;4332095;33;20144;-78
2021/08/13 01:30:28;;;;;;;35.67;20.73;;;;;;;;;;4330987;33;20164;-78
2021/08/13 01:33:00;;;;;;;34.55;19.95;;;;;;;;;;4331044;33;20237;-78
2021/08/13 01:35:36;;;;;;;33.80;21.25;;;;;;;;;;4330620;33;20192;-78
2021/08/13 01:38:05;;;;;;;36.42;20.12;;;;;;;;;;4330315;33;20186;-79
2021/08/13 01:40:32;;;;;;;39.35;22.83;;;;;;;;;;4329662;33;20186;-79
2021/08/13 01:42:58;;;;;;;35.10;22.08;;;;;;;;;;4335677;33;20230;-79
2021/08/13 01:45:25;;;;;;;34.75;20.80;;;;;;;;;;4357889;33;20178;-79
2021/08/13 01:47:52;;;;;;;40.65;24.05;;;;;;;;;;4345096;33;20167;-79
2021/08/13 01:50:18;;;;;;;38.67;22.45;;;;;;;;;;4353719;32;20159;-79
2021/08/13 01:52:44;;;;;;;36.13;21.95;;;;;;;;;;4351008;32;20298;-79
2021/08/13 01:55:10;;;;;;;39.13;23.17;;;;;;;;;;4345123;33;20538;-79
2021/08/13 01:57:35;;;;;;;37.80;22.17;;;;;;;;;;4336515;33;20282;-79
2021/08/13 02:00:02;;;;;;;38.97;23.58;;;;;;;;;;4359782;32;20163;-79
2021/08/13 02:02:28;;;;;;;39.58;24.23;;;;;;;;;;4359779;32;20201;-79
2021/08/13 02:04:54;;;;;;;39.00;23.87;;;;;;;;;;4361071;32;20193;-79
2021/08/13 02:07:20;;;;;;;48.80;26.17;;;;;;;;;;4359468;33;20156;-80
2021/08/13 02:09:46;;;;;;;47.33;26.08;;;;;;;;;;4366689;32;20504;-79
2021/08/13 02:12:12;;;;;;;39.25;24.05;;;;;;;;;;4359647;32;20201;-79
2021/08/13 02:14:38;;;;;;;42.35;22.25;;;;;;;;;;4346971;33;20164;-79
2021/08/13 02:17:06;;;;;;;39.72;22.45;;;;;;;;;;4359432;32;20194;-79
2021/08/13 02:19:40;;;;;;;40.85;24.00;;;;;;;;;;4359579;32;20171;-79
2021/08/13 02:22:05;;;;;;;44.70;26.70;;;;;;;;;;4360017;32;20229;-79
2021/08/13 02:24:31;;;;;;;44.38;24.25;;;;;;;;;;4359658;32;20580;-79
2021/08/13 02:26:58;;;;;;;42.92;24.80;;;;;;;;;;4359376;33;20167;-79
2021/08/13 02:29:23;;;;;;;39.75;23.48;;;;;;;;;;4359730;32;20186;-79
2021/08/13 02:31:49;;;;;;;41.72;23.02;;;;;;;;;;4360607;32;20169;-79
2021/08/13 02:34:14;;;;;;;41.88;22.02;;;;;;;;;;4348520;32;20158;-79
2021/08/13 02:37:07;;;;;;;36.70;22.60;;;;;;;;;;4359570;32;20189;-79
2021/08/13 02:39:39;;;;;;;35.25;20.50;;;;;;;;;;4357929;32;20234;-79
2021/08/13 02:42:05;;;;;;;35.22;21.17;;;;;;;;;;4347872;33;20190;-79
2021/08/13 02:44:32;;;;;;;34.47;18.67;;;;;;;;;;4346484;33;20190;-79
2021/08/13 02:47:00;;;;;;;35.38;21.33;;;;;;;;;;4347282;33;20600;-79
2021/08/13 02:49:27;;;;;;;33.30;20.27;;;;;;;;;;4347021;33;20163;-79
2021/08/13 02:51:57;;;;;;;32.70;19.37;;;;;;;;;;4346323;33;20621;-79
2021/08/13 02:54:25;;;;;;;31.58;19.42;;;;;;;;;;4347053;33;20151;-79
2021/08/13 02:56:52;;;;;;;35.72;19.48;;;;;;;;;;4346633;33;20167;-79
2021/08/13 02:59:19;;;;;;;27.92;17.20;;;;;;;;;;4358984;32;20176;-78
2021/08/13 03:01:44;;;;;;;30.52;17.27;;;;;;;;;;4347354;33;20217;-79
2021/08/13 03:04:10;;;;;;;32.30;18.77;;;;;;;;;;4347033;33;20474;-79
2021/08/13 03:06:38;;;;;;;29.23;17.48;;;;;;;;;;4346585;33;20603;-79
2021/08/13 03:09:04;;;;;;;30.67;16.20;;;;;;;;;;4347661;33;20229;-79
2021/08/13 03:11:30;;;;;;;29.52;18.60;;;;;;;;;;4346736;33;20611;-80
2021/08/13 03:13:56;;;;;;;25.85;14.70;;;;;;;;;;4347031;33;20154;-79
2021/08/13 03:16:22;;;;;;;30.30;17.52;;;;;;;;;;4358834;33;20518;-79
2021/08/13 03:18:47;;;;;;;28.38;15.90;;;;;;;;;;4346806;33;20164;-79
2021/08/13 03:21:13;;;;;;;30.20;18.08;;;;;;;;;;4359276;33;20182;-78
2021/08/13 03:23:39;;;;;;;29.77;16.52;;;;;;;;;;4346877;33;20571;-79
2021/08/13 03:26:06;;;;;;;31.77;18.55;;;;;;;;;;4346880;33;20624;-78
2021/08/13 03:28:31;;;;;;;26.65;15.73;;;;;;;;;;4346508;33;20193;-79
2021/08/13 03:30:56;;;;;;;33.88;16.60;;;;;;;;;;4334602;33;20159;-79
2021/08/13 03:33:22;;;;;;;29.87;18.45;;;;;;;;;;4331815;33;20171;-79
2021/08/13 03:35:57;;;;;;;28.62;15.90;;;;;;;;;;4332192;33;20168;-80
2021/08/13 03:38:22;;;;;;;27.37;14.90;;;;;;;;;;4345917;33;20131;-81
2021/08/13 03:40:53;;;;;;;24.42;14.50;;;;;;;;;;4343258;33;20189;-81
2021/08/13 03:43:19;;;;;;;21.60;13.57;;;;;;;;;;4346535;33;20186;-80
2021/08/13 03:45:47;;;;;;;22.17;12.98;;;;;;;;;;4358721;33;20163;-79
2021/08/13 03:48:12;;;;;;;20.05;11.65;;;;;;;;;;4359714;33;20139;-78
2021/08/13 03:50:37;;;;;;;23.05;12.82;;;;;;;;;;4358758;33;20547;-78
2021/08/13 03:53:03;;;;;;;23.65;13.95;;;;;;;;;;4346623;32;20198;-79
2021/08/13 03:55:28;;;;;;;24.92;13.85;;;;;;;;;;4346290;33;20156;-79
2021/08/13 03:57:54;;;;;;;23.25;14.00;;;;;;;;;;4359871;33;20171;-79
2021/08/13 04:00:19;;;;;;;20.33;12.75;;;;;;;;;;4346324;33;20166;-79
2021/08/13 04:02:44;;;;;;;26.10;14.10;;;;;;;;;;4358632;32;20544;-78
2021/08/13 04:05:11;;;;;;;21.62;14.20;;;;;;;;;;4361123;33;20638;-78
2021/08/13 04:07:36;;;;;;;25.77;16.00;;;;;;;;;;4361838;32;20253;-79
2021/08/13 04:10:02;;;;;;;23.17;14.23;;;;;;;;;;4348876;33;20163;-79
2021/08/13 04:12:27;;;;;;;30.77;16.75;;;;;;;;;;4342741;33;20245;-79
2021/08/13 04:14:52;;;;;;;27.25;15.00;;;;;;;;;;4346500;33;20491;-78
2021/08/13 04:17:18;;;;;;;29.35;16.73;;;;;;;;;;4333997;33;20156;-79
2021/08/13 04:19:43;;;;;;;25.05;15.40;;;;;;;;;;4357004;33;20198;-78
2021/08/13 04:22:08;;;;;;;27.65;15.50;;;;;;;;;;4348789;33;20585;-79
2021/08/13 04:24:35;;;;;;;26.62;14.95;;;;;;;;;;4349432;32;20210;-78
2021/08/13 04:27:00;;;;;;;27.30;16.33;;;;;;;;;;4349100;33;20193;-79
2021/08/13 04:29:26;;;;;;;25.90;15.63;;;;;;;;;;4361985;32;20556;-79
2021/08/13 04:31:51;;;;;;;29.70;16.15;;;;;;;;;;4348742;33;20577;-78
2021/08/13 04:34:18;;;;;;;31.95;17.30;;;;;;;;;;4362904;32;20226;-79
2021/08/13 04:36:43;;;;;;;32.33;17.67;;;;;;;;;;4362169;32;20135;-79
2021/08/13 04:39:09;;;;;;;31.02;17.05;;;;;;;;;;4362083;32;20154;-79
2021/08/13 04:41:35;;;;;;;30.00;15.05;;;;;;;;;;4348825;33;20576;-78
2021/08/13 04:44:00;;;;;;;32.42;17.27;;;;;;;;;;4348982;33;20159;-78
2021/08/13 04:46:25;;;;;;;29.37;15.52;;;;;;;;;;4348570;33;20189;-79
2021/08/13 04:48:50;;;;;;;28.87;15.68;;;;;;;;;;4348453;33;20158;-79
2021/08/13 04:51:16;;;;;;;29.52;18.20;;;;;;;;;;4348194;32;20178;-80
2021/08/13 04:53:41;;;;;;;25.52;15.05;;;;;;;;;;4348072;33;20185;-79
2021/08/13 04:56:06;;;;;;;28.83;15.70;;;;;;;;;;4348603;33;20186;-79
2021/08/13 04:58:32;;;;;;;29.00;16.27;;;;;;;;;;4360652;32;20575;-79
2021/08/13 05:00:57;;;;;;;30.08;16.33;;;;;;;;;;4348389;33;20569;-79
2021/08/13 05:03:22;;;;;;;23.27;14.13;;;;;;;;;;4348432;33;20182;-79
2021/08/13 05:05:48;;;;;;;25.05;14.75;;;;;;;;;;4346531;33;20175;-79
2021/08/13 05:08:13;;;;;;;29.92;16.62;;;;;;;;;;4348036;33;20198;-79
2021/08/13 05:10:39;;;;;;;29.30;17.00;;;;;;;;;;4347932;33;20189;-79
2021/08/13 05:13:04;;;;;;;28.17;15.60;;;;;;;;;;4347674;33;20190;-79
2021/08/13 05:15:29;;;;;;;26.77;14.85;;;;;;;;;;4359810;32;20217;-78
2021/08/13 05:17:55;;;;;;;21.98;13.68;;;;;;;;;;4347857;33;20178;-79
2021/08/13 05:20:20;;;;;;;26.48;13.65;;;;;;;;;;4360118;32;20491;-78
2021/08/13 05:22:45;;;;;;;22.42;13.43;;;;;;;;;;4360720;32;20221;-79
2021/08/13 05:25:11;;;;;;;17.15;11.35;;;;;;;;;;4347783;33;20274;-79
2021/08/13 05:27:37;;;;;;;21.10;12.55;;;;;;;;;;4362041;32;20127;-79
2021/08/13 05:30:03;;;;;;;21.05;12.95;;;;;;;;;;4359903;32;20217;-79
2021/08/13 05:32:29;;;;;;;24.50;13.32;;;;;;;;;;4359898;32;20186;-78
2021/08/13 05:34:54;;;;;;;24.20;12.65;;;;;;;;;;4347164;33;20583;-78
2021/08/13 05:37:19;;;;;;;25.30;12.90;;;;;;;;;;4347580;33;20166;-79
2021/08/13 05:39:45;;;;;;;20.17;12.07;;;;;;;;;;4347556;33;20238;-81
2021/08/13 05:42:10;;;;;;;23.95;13.13;;;;;;;;;;4360573;32;20159;-79
2021/08/13 05:44:39;;;;;;;22.45;13.15;;;;;;;;;;4347316;33;20159;-78
2021/08/13 05:47:04;;;;;;;22.77;12.13;;;;;;;;;;4347664;33;20201;-79
2021/08/13 05:49:29;;;;;;;22.62;12.55;;;;;;;;;;4347202;33;20548;-79
2021/08/13 05:51:55;;;;;;;17.20;11.27;;;;;;;;;;4347845;32;20229;-80
2021/08/13 05:54:21;;;;;;;20.35;11.93;;;;;;;;;;4347227;33;20167;-79
2021/08/13 05:56:49;;;;;;;19.70;10.88;;;;;;;;;;4347563;33;20185;-79
2021/08/13 05:59:14;;;;;;;20.10;11.23;;;;;;;;;;4360666;33;20182;-79
2021/08/13 06:01:40;;;;;;;21.92;12.18;;;;;;;;;;4361458;32;20659;-79
2021/08/13 06:04:05;;;;;;;20.20;10.98;;;;;;;;;;4346651;32;20623;-79
2021/08/13 06:06:33;;;;;;;17.17;11.75;;;;;;;;;;4347699;33;20188;-79
2021/08/13 06:08:59;;;;;;;16.20;11.02;;;;;;;;;;4346984;33;20371;-80
2021/08/13 06:11:27;;;;;;;22.48;11.15;;;;;;;;;;4347420;33;20168;-80
2021/08/13 06:13:52;;;;;;;20.23;10.50;;;;;;;;;;4359328;32;20205;-79
2021/08/13 06:16:19;;;;;;;18.73;10.35;;;;;;;;;;4347060;33;20162;-81
2021/08/13 06:18:44;;;;;;;17.00;10.43;;;;;;;;;;4347897;33;20198;-80
2021/08/13 06:21:09;;;;;;;15.88;10.40;;;;;;;;;;4336230;33;20470;-80
2021/08/13 06:23:35;;;;;;;17.73;8.93;;;;;;;;;;4344892;33;20185;-77
2021/08/13 06:26:00;;;;;;;16.00;9.20;;;;;;;;;;4345489;33;20128;-79
2021/08/13 06:28:28;;;;;;;17.37;8.95;;;;;;;;;;4346033;33;20692;-80
2021/08/13 06:30:53;;;;;;;17.67;9.85;;;;;;;;;;4332862;33;20160;-81
2021/08/13 06:33:19;;;;;;;23.33;12.43;;;;;;;;;;4354535;33;20170;-80
2021/08/13 06:35:44;;;;;;;22.15;10.52;;;;;;;;;;4346777;33;20612;-81
2021/08/13 06:38:10;;;;;;;19.50;10.57;;;;;;;;;;4346640;33;20167;-79
2021/08/13 06:40:35;;;;;;;19.75;9.43;;;;;;;;;;4346732;33;20514;-78
2021/08/13 06:43:00;;;;;;;16.73;8.93;;;;;;;;;;4358554;33;20167;-81
2021/08/13 06:45:26;;;;;;;15.95;8.20;;;;;;;;;;4337949;33;20167;-80
2021/08/13 06:47:51;;;;;;;15.95;8.95;;;;;;;;;;4331852;33;20167;-79
2021/08/13 06:50:16;;;;;;;16.35;8.55;;;;;;;;;;4332066;33;20593;-79
2021/08/13 06:52:47;;;;;;;14.95;8.48;;;;;;;;;;4332021;33;20160;-79
2021/08/13 06:55:18;;;;;;;13.38;7.97;;;;;;;;;;4332247;33;20230;-79
2021/08/13 06:57:48;;;;;;;16.95;8.85;;;;;;;;;;4332401;33;20155;-78
2021/08/13 07:00:15;;;;;;;13.52;9.02;;;;;;;;;;4348810;33;20260;-78
2021/08/13 07:02:40;;;;;;;13.48;7.45;;;;;;;;;;4359074;33;20163;-78
2021/08/13 07:05:06;;;;;;;13.15;8.13;;;;;;;;;;4359320;33;20516;-78
2021/08/13 07:07:31;;;;;;;13.05;7.05;;;;;;;;;;4358909;33;20246;-79
2021/08/13 07:09:57;;;;;;;11.88;7.57;;;;;;;;;;4349772;33;20234;-78
2021/08/13 07:12:22;;;;;;;15.48;8.30;;;;;;;;;;4346626;33;20631;-78
2021/08/13 07:14:48;;;;;;;14.23;6.85;;;;;;;;;;4359115;33;20185;-78
2021/08/13 07:17:13;;;;;;;13.68;6.35;;;;;;;;;;4346692;33;20191;-80
2021/08/13 07:19:38;;;;;;;12.68;7.22;;;;;;;;;;4345510;33;20178;-80
2021/08/13 07:22:04;;;;;;;14.05;7.05;;;;;;;;;;4349596;32;20268;-78
2021/08/13 07:24:29;;;;;;;12.98;7.10;;;;;;;;;;4346591;33;20158;-79
2021/08/13 07:26:54;;;;;;;10.65;6.40;;;;;;;;;;4359198;33;20158;-78
2021/08/13 07:29:21;;;;;;;12.65;5.93;;;;;;;;;;4345359;33;20189;-80
2021/08/13 07:31:47;;;;;;;12.13;5.90;;;;;;;;;;4358460;32;20163;-79
2021/08/13 07:34:15;;;;;;;9.77;5.25;;;;;;;;;;4353347;33;20181;-78
2021/08/13 07:36:41;;;;;;;12.63;5.40;;;;;;;;;;4358912;32;20189;-80
2021/08/13 07:39:06;;;;;;;8.43;5.25;;;;;;;;;;4359934;32;20167;-80
2021/08/13 07:41:34;;;;;;;8.30;5.45;;;;;;;;;;4362193;32;20163;-79
2021/08/13 07:44:00;;;;;;;9.40;4.80;;;;;;;;;;4336630;33;20169;-78
2021/08/13 07:46:27;;;;;;;8.50;4.37;;;;;;;;;;4342033;32;20167;-79
2021/08/13 07:48:58;;;;;;;9.15;4.10;;;;;;;;;;4348673;33;20155;-79
2021/08/13 07:51:24;;;;;;;10.68;4.95;;;;;;;;;;4361167;32;20258;-79
2021/08/13 07:53:53;;;;;;;8.55;4.30;;;;;;;;;;4361229;32;20174;-79
2021/08/13 07:56:18;;;;;;;9.02;5.45;;;;;;;;;;4361124;32;20167;-79
2021/08/13 07:58:44;;;;;;;7.72;4.28;;;;;;;;;;4361321;32;20627;-79
2021/08/13 08:01:12;;;;;;;11.60;4.20;;;;;;;;;;4361606;32;20205;-79
2021/08/13 08:03:37;;;;;;;9.00;4.20;;;;;;;;;;4361655;32;20577;-77
2021/08/13 08:06:03;;;;;;;7.25;3.92;;;;;;;;;;4361646;32;20174;-80
2021/08/13 08:08:28;;;;;;;12.30;4.35;;;;;;;;;;4361124;32;20226;-79
2021/08/13 08:10:53;;;;;;;9.93;4.55;;;;;;;;;;4362702;32;20200;-78
2021/08/13 08:13:19;;;;;;;7.25;3.83;;;;;;;;;;4362552;32;20574;-79
2021/08/13 08:15:45;;;;;;;10.20;4.53;;;;;;;;;;4349405;33;20695;-78
2021/08/13 08:18:19;;;;;;;7.00;4.32;;;;;;;;;;4360788;32;20635;-80
2021/08/13 08:20:45;;;;;;;9.38;4.65;;;;;;;;;;4354735;32;20174;-77
2021/08/13 08:23:10;;;;;;;6.68;4.12;;;;;;;;;;4357782;32;20178;-79
2021/08/13 08:25:36;;;;;;;8.98;4.28;;;;;;;;;;4355992;32;20155;-79
2021/08/13 08:28:01;;;;;;;6.22;3.62;;;;;;;;;;4361376;32;20159;-80
2021/08/13 08:30:26;;;;;;;8.70;3.87;;;;;;;;;;4362225;32;20154;-80
2021/08/13 08:32:52;;;;;;;7.22;2.70;;;;;;;;;;4360883;32;20484;-79
2021/08/13 08:35:17;;;;;;;7.30;2.78;;;;;;;;;;4360850;32;20691;-81
2021/08/13 08:37:53;;;;;;;6.35;3.37;;;;;;;;;;4360633;33;20182;-75
2021/08/13 08:40:33;;;;;;;6.30;3.90;;;;;;;;;;4348362;33;20155;-79
2021/08/13 08:42:59;;;;;;;6.37;3.30;;;;;;;;;;4361591;32;20174;-79
2021/08/13 08:45:25;;;;;;;7.18;3.60;;;;;;;;;;4360290;32;20590;-74
2021/08/13 08:47:57;;;;;;;7.55;3.50;;;;;;;;;;4348620;33;20162;-77
2021/08/13 08:50:23;;;;;;;8.77;3.97;;;;;;;;;;4353764;32;20198;-78
2021/08/13 08:52:49;;;;;;;7.57;3.83;;;;;;;;;;4347639;33;20158;-79
2021/08/13 08:55:15;;;;;;;5.55;3.33;;;;;;;;;;4341387;33;20194;-78
2021/08/13 08:57:40;;;;;;;5.05;3.10;;;;;;;;;;4358886;32;20183;-80
2021/08/13 09:00:07;;;;;;;9.40;3.90;;;;;;;;;;4362390;32;20158;-77
2021/08/13 09:02:32;;;;;;;5.53;3.40;;;;;;;;;;4348232;33;20155;-79
2021/08/13 09:04:59;;;;;;;6.18;3.42;;;;;;;;;;4336596;33;20159;-73
2021/08/13 09:07:25;;;;;;;5.87;3.28;;;;;;;;;;4348736;33;20199;-80
2021/08/13 09:09:50;;;;;;;5.07;3.10;;;;;;;;;;4347551;32;20257;-76
2021/08/13 09:12:15;;;;;;;7.85;3.80;;;;;;;;;;4347410;33;20482;-78
2021/08/13 09:14:41;;;;;;;6.47;3.53;;;;;;;;;;4352396;32;20163;-80
2021/08/13 09:17:15;;;;;;;7.50;3.40;;;;;;;;;;4361035;32;20278;-79
2021/08/13 09:19:42;;;;;;;7.07;3.15;;;;;;;;;;4348129;33;20185;-79
2021/08/13 09:22:08;;;;;;;6.50;3.22;;;;;;;;;;4359853;32;20159;-79
2021/08/13 09:24:36;;;;;;;9.38;3.55;;;;;;;;;;4360334;32;20167;-79
2021/08/13 09:27:14;;;;;;;5.95;3.10;;;;;;;;;;4359674;32;20178;-75
2021/08/13 09:29:59;;;;;;;4.90;2.83;;;;;;;;;;4344682;33;20189;-79
2021/08/13 09:32:26;;;;;;;3.95;2.55;;;;;;;;;;4342737;33;20202;-79
2021/08/13 09:34:51;;;;;;;4.53;2.33;;;;;;;;;;4343290;33;20167;-78
2021/08/13 09:37:17;;;;;;;5.70;2.80;;;;;;;;;;4361390;32;20493;-79
2021/08/13 09:39:42;;;;;;;4.65;2.28;;;;;;;;;;4347266;33;20163;-78
2021/08/13 09:42:07;;;;;;;4.82;2.15;;;;;;;;;;4360264;32;20163;-76
2021/08/13 09:44:34;;;;;;;6.82;2.42;;;;;;;;;;4336731;32;20577;-78
2021/08/13 09:46:59;;;;;;;5.65;2.42;;;;;;;;;;4334921;33;20190;-78
2021/08/13 09:49:25;;;;;;;8.35;2.80;;;;;;;;;;4339342;33;20688;-79
2021/08/13 09:51:50;;;;;;;8.82;2.60;;;;;;;;;;4333293;33;20167;-79
2021/08/13 09:54:16;;;;;;;7.22;2.30;;;;;;;;;;4332819;33;20466;-78
2021/08/13 09:56:41;;;;;;;5.87;2.53;;;;;;;;;;4333606;33;20203;-78
2021/08/13 09:59:17;;;;;;;5.20;2.33;;;;;;;;;;4359564;32;20553;-78
2021/08/13 10:01:47;;;;;;;5.85;2.45;;;;;;;;;;4358733;32;20584;-76
2021/08/13 10:04:14;;;;;;;7.25;2.60;;;;;;;;;;4346985;33;20594;-80
2021/08/13 10:06:40;;;;;;;6.50;2.72;;;;;;;;;;4341609;33;20608;-79
2021/08/13 10:09:06;;;;;;;8.05;2.20;;;;;;;;;;4332410;33;20185;-79
2021/08/13 10:11:37;;;;;;;4.90;2.25;;;;;;;;;;4346020;33;20163;-80
2021/08/13 10:14:04;;;;;;;5.55;2.20;;;;;;;;;;4339978;33;20613;-74
2021/08/13 10:16:30;;;;;;;9.98;2.50;;;;;;;;;;4358769;32;20183;-78
2021/08/13 10:18:55;;;;;;;5.75;2.53;;;;;;;;;;4345543;33;20288;-80
2021/08/13 10:21:21;;;;;;;6.60;2.45;;;;;;;;;;4360472;32;20541;-80
2021/08/13 10:23:47;;;;;;;8.43;2.90;;;;;;;;;;4336931;33;20593;-78
2021/08/13 10:26:12;;;;;;;8.27;2.25;;;;;;;;;;4333800;33;20545;-77
2021/08/13 10:28:37;;;;;;;9.18;2.50;;;;;;;;;;4346745;33;20189;-80
2021/08/13 10:31:03;;;;;;;7.53;2.83;;;;;;;;;;4347387;32;20163;-80
2021/08/13 10:33:29;;;;;;;7.57;2.45;;;;;;;;;;4346290;33;20589;-78
2021/08/13 10:35:58;;;;;;;7.70;2.50;;;;;;;;;;4346623;33;20225;-80
2021/08/13 10:38:25;;;;;;;7.18;2.35;;;;;;;;;;4347530;32;20155;-79
2021/08/13 10:40:51;;;;;;;8.73;2.40;;;;;;;;;;4346385;33;20212;-79
2021/08/13 10:43:17;;;;;;;6.85;2.25;;;;;;;;;;4356298;32;20616;-77
2021/08/13 10:45:48;;;;;;;7.97;2.67;;;;;;;;;;4338429;33;20175;-78
2021/08/13 10:48:24;;;;;;;8.93;2.55;;;;;;;;;;4341725;33;20582;-80
2021/08/13 10:50:55;;;;;;;7.18;2.60;;;;;;;;;;4341192;33;20175;-72
2021/08/13 10:53:26;;;;;;;8.27;2.17;;;;;;;;;;4344285;33;20234;-79
2021/08/13 10:55:53;;;;;;;4.90;2.28;;;;;;;;;;4332784;33;20147;-79
2021/08/13 10:58:40;;;;;;;6.78;2.53;;;;;;;;;;4329723;33;20164;-78
2021/08/13 11:01:14;;;;;;;5.93;2.53;;;;;;;;;;4342810;33;20159;-80
2021/08/13 11:03:42;;;;;;;8.18;2.35;;;;;;;;;;4343243;33;20194;-79
2021/08/13 11:06:11;;;;;;;7.57;2.25;;;;;;;;;;4346085;33;20143;-80
2021/08/13 11:08:39;;;;;;;8.27;2.83;;;;;;;;;;4341429;33;20584;-74
2021/08/13 11:11:04;;;;;;;9.13;2.60;;;;;;;;;;4335331;33;20213;-79
2021/08/13 11:13:34;;;;;;;8.48;2.35;;;;;;;;;;4348553;33;20155;-80
2021/08/13 11:16:01;;;;;;;9.40;3.08;;;;;;;;;;4363442;32;20173;-79
2021/08/13 11:18:28;;;;;;;7.40;2.12;;;;;;;;;;4349507;33;20185;-79
2021/08/13 11:20:54;;;;;;;6.47;1.80;;;;;;;;;;4361954;32;20234;-79
2021/08/13 11:23:19;;;;;;;9.60;2.47;;;;;;;;;;4361631;32;20634;-80
2021/08/13 11:25:53;;;;;;;9.07;2.40;;;;;;;;;;4361800;32;20510;-79
2021/08/13 11:28:22;;;;;;;8.52;2.10;;;;;;;;;;4362863;32;20443;-75
2021/08/13 11:30:48;;;;;;;7.43;2.00;;;;;;;;;;4362863;32;20131;-79
2021/08/13 11:33:26;;;;;;;9.80;2.70;;;;;;;;;;4361748;32;20261;-78
2021/08/13 11:35:52;;;;;;;8.60;3.15;;;;;;;;;;4361447;32;20159;-79
2021/08/13 11:38:36;;;;;;;7.70;2.37;;;;;;;;;;4361728;32;20242;-79
2021/08/13 11:41:22;;;;;;;10.00;2.40;;;;;;;;;;4361140;33;20257;-79
2021/08/13 11:43:48;;;;;;;9.18;2.30;;;;;;;;;;4361615;32;20194;-77
2021/08/13 11:46:32;;;;;;;8.02;2.08;;;;;;;;;;4348984;33;20187;-79
2021/08/13 11:49:01;;;;;;;9.20;2.28;;;;;;;;;;4356651;32;20243;-76
2021/08/13 11:51:27;;;;;;;6.95;2.40;;;;;;;;;;4332086;33;20229;-78
2021/08/13 11:53:53;;;;;;;7.05;2.78;;;;;;;;;;4333226;33;20206;-79
2021/08/13 11:56:29;;;;;;;6.15;1.80;;;;;;;;;;4331839;33;20155;-79
2021/08/13 11:58:57;;;;;;;6.70;1.90;;;;;;;;;;4331650;33;20226;-77
2021/08/13 12:01:22;;;;;;;9.38;2.25;;;;;;;;;;4356139;32;20191;-79
2021/08/13 12:03:50;;;;;;;9.23;2.58;;;;;;;;;;4331887;33;20183;-80
2021/08/13 12:06:15;;;;;;;5.82;2.35;;;;;;;;;;4331871;33;20186;-74
2021/08/13 12:08:44;;;;;;;9.82;2.45;;;;;;;;;;4356099;32;20167;-80
2021/08/13 12:11:10;;;;;;;8.50;2.40;;;;;;;;;;4340716;33;20175;-77
2021/08/13 12:13:35;;;;;;;9.57;2.30;;;;;;;;;;4358240;32;20167;-80
2021/08/13 12:16:02;;;;;;;9.07;2.50;;;;;;;;;;4357804;33;20307;-77
2021/08/13 12:18:30;;;;;;;6.43;2.75;;;;;;;;;;4345880;32;20156;-77
2021/08/13 12:20:55;;;;;;;6.97;2.42;;;;;;;;;;4351864;32;20277;-80
2021/08/13 12:23:21;;;;;;;7.53;2.28;;;;;;;;;;4332948;33;20542;-74
2021/08/13 12:25:49;;;;;;;7.37;2.40;;;;;;;;;;4331327;33;20186;-77
2021/08/13 12:28:17;;;;;;;7.43;2.22;;;;;;;;;;4330969;33;20226;-79
2021/08/13 12:30:43;;;;;;;7.85;2.65;;;;;;;;;;4344374;33;20201;-79
2021/08/13 12:33:16;;;;;;;7.15;2.20;;;;;;;;;;4345893;33;20172;-79
2021/08/13 12:35:43;;;;;;;9.40;2.62;;;;;;;;;;4346421;33;20501;-80
2021/08/13 12:38:09;;;;;;;9.23;2.33;;;;;;;;;;4347254;33;20231;-78
2021/08/13 12:40:53;;;;;;;7.70;2.45;;;;;;;;;;4344902;33;20217;-77
2021/08/13 12:43:19;;;;;;;5.68;2.22;;;;;;;;;;4347356;33;20156;-79
2021/08/13 12:45:45;;;;;;;11.23;3.12;;;;;;;;;;4344855;33;20219;-79
2021/08/13 12:48:10;;;;;;;6.72;1.92;;;;;;;;;;4358461;32;20510;-79
2021/08/13 12:50:36;;;;;;;8.48;2.37;;;;;;;;;;4344834;33;20206;-78
2021/08/13 12:53:03;;;;;;;7.45;2.47;;;;;;;;;;4357763;32;20191;-78
2021/08/13 12:55:39;;;;;;;10.23;2.40;;;;;;;;;;4347504;33;20234;-78
2021/08/13 12:58:05;;;;;;;8.95;2.40;;;;;;;;;;4342595;33;20297;-78
2021/08/13 13:00:31;;;;;;;7.03;2.30;;;;;;;;;;4339351;33;20210;-79
2021/08/13 13:03:15;;;;;;;9.48;2.40;;;;;;;;;;4341026;33;20230;-80
2021/08/13 13:06:00;;;;;;;12.10;2.62;;;;;;;;;;4344466;33;20609;-78
2021/08/13 13:08:25;;;;;;;12.20;2.87;;;;;;;;;;4358436;32;20625;-80
2021/08/13 13:10:50;;;;;;;7.10;2.28;;;;;;;;;;4345995;33;20237;-79
2021/08/13 13:13:16;;;;;;;10.00;2.90;;;;;;;;;;4347267;32;20485;-78
2021/08/13 13:15:41;;;;;;;10.10;2.87;;;;;;;;;;4357383;32;20214;-80
2021/08/13 13:18:22;;;;;;;11.15;2.85;;;;;;;;;;4345756;33;20159;-80
2021/08/13 13:20:47;;;;;;;8.95;2.65;;;;;;;;;;4331266;33;20610;-79
2021/08/13 13:23:15;;;;;;;9.83;2.60;;;;;;;;;;4351304;33;20189;-79
2021/08/13 13:25:45;;;;;;;10.25;2.65;;;;;;;;;;4345545;33;20712;-78
2021/08/13 13:28:11;;;;;;;9.73;3.20;;;;;;;;;;4345161;33;20160;-78
2021/08/13 13:30:40;;;;;;;8.50;2.50;;;;;;;;;;4345841;33;20254;-78
2021/08/13 13:33:12;;;;;;;5.78;2.30;;;;;;;;;;4358053;32;20174;-79
2021/08/13 13:35:39;;;;;;;12.32;2.70;;;;;;;;;;4357759;32;20198;-80
2021/08/13 13:38:05;;;;;;;13.18;2.92;;;;;;;;;;4357680;33;20241;-80
2021/08/13 13:40:34;;;;;;;8.77;2.85;;;;;;;;;;4357227;33;20155;-80
2021/08/13 13:43:00;;;;;;;8.93;2.50;;;;;;;;;;4345459;33;20155;-79
2021/08/13 13:45:26;;;;;;;7.12;2.15;;;;;;;;;;4345007;33;20202;-78
2021/08/13 13:47:52;;;;;;;11.02;2.15;;;;;;;;;;4344937;33;20217;-80
2021/08/13 13:50:17;;;;;;;9.20;2.62;;;;;;;;;;4345268;33;20171;-79
2021/08/13 13:52:43;;;;;;;7.55;2.22;;;;;;;;;;4357485;32;20295;-79
2021/08/13 13:55:09;;;;;;;11.40;2.97;;;;;;;;;;4344812;33;20191;-80
2021/08/13 13:57:35;;;;;;;11.98;2.37;;;;;;;;;;4344441;33;20183;-76
2021/08/13 14:00:02;;;;;;;7.43;2.50;;;;;;;;;;4357217;32;20609;-79
2021/08/13 14:02:27;;;;;;;10.98;3.28;;;;;;;;;;4357215;32;20167;-78
2021/08/13 14:04:53;;;;;;;9.00;2.65;;;;;;;;;;4357057;32;20182;-79
2021/08/13 14:07:18;;;;;;;8.15;2.40;;;;;;;;;;4344925;33;20581;-77
2021/08/13 14:09:43;;;;;;;7.72;2.65;;;;;;;;;;4357423;32;20229;-78
2021/08/13 14:12:18;;;;;;;8.52;2.42;;;;;;;;;;4357131;33;20589;-80
2021/08/13 14:14:43;;;;;;;6.45;2.17;;;;;;;;;;4345858;33;20155;-79
2021/08/13 14:17:09;;;;;;;10.25;2.10;;;;;;;;;;4355967;32;20586;-78
2021/08/13 14:19:34;;;;;;;6.60;1.70;;;;;;;;;;4355982;32;20216;-80
2021/08/13 14:22:00;;;;;;;6.87;1.90;;;;;;;;;;4344032;33;20570;-78
2021/08/13 14:24:25;;;;;;;7.32;1.80;;;;;;;;;;4356357;32;20160;-79
2021/08/13 14:26:50;;;;;;;7.82;2.20;;;;;;;;;;4356243;33;20152;-79
2021/08/13 14:29:16;;;;;;;12.05;2.22;;;;;;;;;;4356356;32;20167;-77